Bluffton, Texas
Current Conditions -  °F | °C
As of 6:53 PM on Tuesday 21 Oct 2014 (Local Time) from KBMQ Reporting Station
Haze Haze  
Wind Chill: 73°   Ceiling: Unl
Heat Index: 73°   Visibility: 6mi
Dew Point: 49°   Wind: 3mph
Humidity: 42%   Direction: 100°E
Pressure: 30.05"   Gusts: NA
Location:  30.82°N, 98.49°W
Report Text: KBMQ 212353Z AUTO 10003KT 6SM HZ CLR 23/09 A3005 RMK AO2 SLP165 T02280094 10261 20228 53005 $
Loading
Personal Weather Stations






























Interactive Weather Map
Tropical Storm Tracking
New forecast layout! Learn more

10-Day Weather Forecast

Advertisements
Track Severe Weather on mobile